createdAt,value
2023-01-17T00:00:20.604Z,8.53
2023-01-17T00:01:22.382Z,8.16
2023-01-17T00:02:24.264Z,8.03
2023-01-17T00:03:26.162Z,8.21
2023-01-17T00:04:27.967Z,8.24
2023-01-17T00:05:29.780Z,8.17
2023-01-17T00:06:31.779Z,8.22
2023-01-17T00:07:33.578Z,9.68
2023-01-17T00:08:35.437Z,8.40
2023-01-17T00:09:37.259Z,8.26
2023-01-17T00:10:39.174Z,8.92
2023-01-17T00:11:40.977Z,8.14
2023-01-17T00:12:42.797Z,9.13
2023-01-17T00:13:44.651Z,11.63
2023-01-17T00:14:46.464Z,11.18
2023-01-17T00:15:48.272Z,13.69
2023-01-17T00:16:50.171Z,15.72
2023-01-17T00:17:51.993Z,14.63
2023-01-17T00:18:53.866Z,12.28
2023-01-17T00:19:55.676Z,10.91
2023-01-17T00:20:57.599Z,9.86
2023-01-17T00:21:59.460Z,9.34
2023-01-17T00:23:01.252Z,8.98
2023-01-17T00:24:03.109Z,8.76
2023-01-17T00:25:04.911Z,8.93
2023-01-17T00:26:07.029Z,8.85
2023-01-17T00:27:08.831Z,7.67
2023-01-17T00:28:10.650Z,7.61
2023-01-17T00:29:12.501Z,7.69
2023-01-17T00:30:15.322Z,7.63
2023-01-17T00:31:17.298Z,7.41
2023-01-17T00:32:19.152Z,7.05
2023-01-17T00:33:20.958Z,7.56
2023-01-17T00:34:22.803Z,7.24
2023-01-17T00:35:24.604Z,6.93
2023-01-17T00:36:26.504Z,7.53
2023-01-17T00:37:28.340Z,7.32
2023-01-17T00:38:30.176Z,7.21
2023-01-17T00:39:32.010Z,7.14
2023-01-17T00:40:33.915Z,6.87
2023-01-17T00:41:35.722Z,7.41
2023-01-17T00:42:37.548Z,6.46
2023-01-17T00:43:39.551Z,6.73
2023-01-17T00:44:41.430Z,6.97
2023-01-17T00:45:43.233Z,7.10
2023-01-17T00:46:45.246Z,6.45
2023-01-17T00:47:47.047Z,6.84
2023-01-17T00:48:48.851Z,6.84
2023-01-17T00:49:50.704Z,6.80
2023-01-17T00:50:52.719Z,6.31
2023-01-17T00:51:54.527Z,6.86
2023-01-17T00:52:56.475Z,6.24
2023-01-17T00:53:58.271Z,6.67
2023-01-17T00:55:00.143Z,6.18
2023-01-17T00:56:01.929Z,7.17
2023-01-17T00:57:03.763Z,6.55
2023-01-17T00:58:05.566Z,6.21
2023-01-17T00:59:07.358Z,6.85
2023-01-17T01:00:09.621Z,6.36
2023-01-17T01:01:11.482Z,6.34
2023-01-17T01:02:13.353Z,6.29
2023-01-17T01:03:15.173Z,5.98
2023-01-17T01:04:16.987Z,6.69
2023-01-17T01:05:18.855Z,6.86
2023-01-17T01:06:20.759Z,6.37
2023-01-17T01:07:22.575Z,6.10
2023-01-17T01:08:24.413Z,6.17
2023-01-17T01:09:26.250Z,6.66
2023-01-17T01:10:28.284Z,6.50
2023-01-17T01:11:30.110Z,6.43
2023-01-17T01:12:31.924Z,6.03
2023-01-17T01:13:33.739Z,7.00
2023-01-17T01:14:35.626Z,6.07
2023-01-17T01:15:37.473Z,6.88
2023-01-17T01:16:39.397Z,6.40
2023-01-17T01:17:41.205Z,6.81
2023-01-17T01:18:43.031Z,7.04
2023-01-17T01:19:44.846Z,6.65
2023-01-17T01:20:46.707Z,6.72
2023-01-17T01:21:48.535Z,7.03
2023-01-17T01:22:50.348Z,6.38
2023-01-17T01:23:52.620Z,6.13
2023-01-17T01:24:54.499Z,6.79
2023-01-17T01:25:56.343Z,6.08
2023-01-17T01:26:58.259Z,6.81
2023-01-17T01:28:00.111Z,6.84
2023-01-17T01:29:01.990Z,6.23
2023-01-17T01:30:03.905Z,6.70
2023-01-17T01:31:05.767Z,6.75
2023-01-17T01:32:07.602Z,6.31
2023-01-17T01:33:09.414Z,6.85
2023-01-17T01:34:11.226Z,6.37
2023-01-17T01:35:13.044Z,6.11
2023-01-17T01:36:15.018Z,6.91
2023-01-17T01:37:16.831Z,7.00
2023-01-17T01:38:18.637Z,6.38
2023-01-17T01:39:20.518Z,7.01
2023-01-17T01:40:22.438Z,6.78
2023-01-17T01:41:24.296Z,6.67
2023-01-17T01:42:26.103Z,6.59
2023-01-17T01:43:27.933Z,6.71
2023-01-17T01:44:29.760Z,6.66
2023-01-17T01:45:31.614Z,7.26
2023-01-17T01:46:33.599Z,7.41
2023-01-17T01:47:35.418Z,7.25
2023-01-17T01:48:37.220Z,6.72
2023-01-17T01:49:39.038Z,6.35
2023-01-17T01:50:40.938Z,7.13
2023-01-17T01:51:42.823Z,6.69
2023-01-17T01:52:44.656Z,7.52
2023-01-17T01:53:46.445Z,6.49
2023-01-17T01:54:48.460Z,6.81
2023-01-17T01:55:50.271Z,6.49
2023-01-17T01:56:52.435Z,6.56
2023-01-17T01:57:54.243Z,7.43
2023-01-17T01:58:56.052Z,7.38
2023-01-17T01:59:57.866Z,7.11
2023-01-17T02:00:59.855Z,6.85
2023-01-17T02:02:01.767Z,7.29
2023-01-17T02:03:03.565Z,7.41
2023-01-17T02:04:05.448Z,7.43
2023-01-17T02:05:07.271Z,7.07
2023-01-17T02:06:09.797Z,6.96
2023-01-17T02:07:11.665Z,7.13
2023-01-17T02:08:13.498Z,7.10
2023-01-17T02:09:15.302Z,7.91
2023-01-17T02:10:17.260Z,7.03
2023-01-17T02:11:19.069Z,7.13
2023-01-17T02:12:20.944Z,7.52
2023-01-17T02:13:22.758Z,7.86
2023-01-17T02:14:24.597Z,7.51
2023-01-17T02:15:26.388Z,7.35
2023-01-17T02:16:28.507Z,7.99
2023-01-17T02:17:30.350Z,8.10
2023-01-17T02:18:32.155Z,7.92
2023-01-17T02:19:33.963Z,7.85
2023-01-17T02:20:35.907Z,7.69
2023-01-17T02:21:37.804Z,7.95
2023-01-17T02:22:39.654Z,7.58
2023-01-17T02:23:41.460Z,7.61
2023-01-17T02:24:43.293Z,7.64
2023-01-17T02:25:45.135Z,8.40
2023-01-17T02:26:47.045Z,8.25
2023-01-17T02:27:48.904Z,7.81
2023-01-17T02:28:50.716Z,7.60
2023-01-17T02:29:52.539Z,7.84
2023-01-17T02:30:54.485Z,8.01
2023-01-17T02:31:56.399Z,8.26
2023-01-17T02:32:58.266Z,9.20
2023-01-17T02:34:00.105Z,8.50
2023-01-17T02:35:01.879Z,8.57
2023-01-17T02:36:03.717Z,8.22
2023-01-17T02:37:05.822Z,7.81
2023-01-17T02:38:07.666Z,8.17
2023-01-17T02:39:09.506Z,8.63
2023-01-17T02:40:12.021Z,8.03
2023-01-17T02:41:13.876Z,7.83
2023-01-17T02:42:15.791Z,7.45
2023-01-17T02:43:17.650Z,7.64
2023-01-17T02:44:19.463Z,7.63
2023-01-17T02:45:21.276Z,8.47
2023-01-17T02:46:23.220Z,8.25
2023-01-17T02:47:25.017Z,8.03
2023-01-17T02:48:26.883Z,7.53
2023-01-17T02:49:28.732Z,8.14
2023-01-17T02:50:30.676Z,8.27
2023-01-17T02:51:32.477Z,8.45
2023-01-17T02:52:34.295Z,8.23
2023-01-17T02:53:36.165Z,8.58
2023-01-17T02:54:37.992Z,8.37
2023-01-17T02:55:39.813Z,8.36
2023-01-17T02:56:41.825Z,8.49
2023-01-17T02:57:43.649Z,8.07
2023-01-17T02:58:45.519Z,8.42
2023-01-17T02:59:47.325Z,8.34
2023-01-17T03:00:49.428Z,8.49
2023-01-17T03:01:51.378Z,8.20
2023-01-17T03:02:53.352Z,8.20
2023-01-17T03:03:55.252Z,8.66
2023-01-17T03:04:57.091Z,8.19
2023-01-17T03:05:58.909Z,8.26
2023-01-17T03:07:00.830Z,8.39
2023-01-17T03:08:02.640Z,7.81
2023-01-17T03:09:04.517Z,8.07
2023-01-17T03:10:06.445Z,9.19
2023-01-17T03:11:08.238Z,8.79
2023-01-17T03:12:10.265Z,9.27
2023-01-17T03:13:12.054Z,8.62
2023-01-17T03:14:14.037Z,8.98
2023-01-17T03:15:15.846Z,9.35
2023-01-17T03:16:17.884Z,8.68
2023-01-17T03:17:19.683Z,9.39
2023-01-17T03:18:21.460Z,8.95
2023-01-17T03:19:23.305Z,9.30
2023-01-17T03:20:25.405Z,9.01
2023-01-17T03:21:27.226Z,8.90
2023-01-17T03:22:29.050Z,9.37
2023-01-17T03:23:30.854Z,9.24
2023-01-17T03:24:32.708Z,8.76
2023-01-17T03:25:34.517Z,9.39
2023-01-17T03:26:36.441Z,8.95
2023-01-17T03:27:38.396Z,9.11
2023-01-17T03:28:40.228Z,9.09
2023-01-17T03:29:42.090Z,9.23
2023-01-17T03:30:44.126Z,8.96
2023-01-17T03:31:45.951Z,9.14
2023-01-17T03:32:47.750Z,9.53
2023-01-17T03:33:49.551Z,9.07
2023-01-17T03:34:51.414Z,9.63
2023-01-17T03:35:53.239Z,10.23
2023-01-17T03:36:55.143Z,9.70
2023-01-17T03:37:56.978Z,9.79
2023-01-17T03:38:58.803Z,9.87
2023-01-17T03:40:00.642Z,10.17
2023-01-17T03:41:02.455Z,9.61
2023-01-17T03:42:04.299Z,9.50
2023-01-17T03:43:06.150Z,10.25
2023-01-17T03:44:07.974Z,10.08
2023-01-17T03:45:09.808Z,9.94
2023-01-17T03:46:11.827Z,9.69
2023-01-17T03:47:13.633Z,9.26
2023-01-17T03:48:15.621Z,9.80
2023-01-17T03:49:17.407Z,9.85
2023-01-17T03:50:19.249Z,9.51
2023-01-17T03:51:21.074Z,10.57
2023-01-17T03:52:22.925Z,9.59
2023-01-17T03:53:24.736Z,10.37
2023-01-17T03:54:26.537Z,10.18
2023-01-17T03:55:28.392Z,10.75
2023-01-17T03:56:30.503Z,10.30
2023-01-17T03:57:32.307Z,9.75
2023-01-17T03:58:34.160Z,10.33
2023-01-17T03:59:35.971Z,9.67
2023-01-17T04:00:37.960Z,10.28
2023-01-17T04:01:39.879Z,11.16
2023-01-17T04:02:41.835Z,9.97
2023-01-17T04:03:43.709Z,9.38
2023-01-17T04:04:45.511Z,9.57
2023-01-17T04:05:47.355Z,10.32
2023-01-17T04:06:49.168Z,10.05
2023-01-17T04:07:51.808Z,11.53
2023-01-17T04:08:53.798Z,12.64
2023-01-17T04:09:55.610Z,10.66
2023-01-17T04:10:57.558Z,10.79
2023-01-17T04:11:59.373Z,10.76
2023-01-17T04:13:01.188Z,11.11
2023-01-17T04:14:03.075Z,11.45
2023-01-17T04:15:04.888Z,10.89
2023-01-17T04:16:06.944Z,10.60
2023-01-17T04:17:08.763Z,11.10
2023-01-17T04:18:10.573Z,11.09
2023-01-17T04:19:12.380Z,11.24
2023-01-17T04:20:14.396Z,11.00
2023-01-17T04:21:16.264Z,10.60
2023-01-17T04:22:18.068Z,11.62
2023-01-17T04:23:20.033Z,10.79
2023-01-17T04:24:21.873Z,10.41
2023-01-17T04:25:23.679Z,11.08
2023-01-17T04:26:25.631Z,11.97
2023-01-17T04:27:27.448Z,11.66
2023-01-17T04:28:29.256Z,11.26
2023-01-17T04:29:31.085Z,11.52
2023-01-17T04:30:33.053Z,10.38
2023-01-17T04:31:34.996Z,11.59
2023-01-17T04:32:36.753Z,11.27
2023-01-17T04:33:38.555Z,12.36
2023-01-17T04:34:40.388Z,11.62
2023-01-17T04:35:42.214Z,11.10
2023-01-17T04:36:44.275Z,10.63
2023-01-17T04:37:46.087Z,11.44
2023-01-17T04:38:47.874Z,11.58
2023-01-17T04:39:49.697Z,11.39
2023-01-17T04:40:51.702Z,12.21
2023-01-17T04:41:53.547Z,11.43
2023-01-17T04:42:55.365Z,11.65
2023-01-17T04:43:57.167Z,11.41
2023-01-17T04:44:59.058Z,11.52
2023-01-17T04:46:00.904Z,12.17
2023-01-17T04:47:02.847Z,11.33
2023-01-17T04:48:04.630Z,11.93
2023-01-17T04:49:06.439Z,12.63
2023-01-17T04:50:08.360Z,11.58
2023-01-17T04:51:10.145Z,11.81
2023-01-17T04:52:12.021Z,11.72
2023-01-17T04:53:13.831Z,13.09
2023-01-17T04:54:15.638Z,12.01
2023-01-17T04:55:17.454Z,11.13
2023-01-17T04:56:19.367Z,11.79
2023-01-17T04:57:21.263Z,11.81
2023-01-17T04:58:23.049Z,11.90
2023-01-17T04:59:24.844Z,12.12
2023-01-17T05:00:26.827Z,11.41
2023-01-17T05:01:30.606Z,12.69
2023-01-17T05:02:32.542Z,11.80
2023-01-17T05:03:34.430Z,12.21
2023-01-17T05:04:36.251Z,12.63
2023-01-17T05:05:38.056Z,11.63
2023-01-17T05:06:39.981Z,12.05
2023-01-17T05:07:41.842Z,12.39
2023-01-17T05:08:43.654Z,12.35
2023-01-17T05:09:45.473Z,12.09
2023-01-17T05:10:47.472Z,11.63
2023-01-17T05:11:49.291Z,11.87
2023-01-17T05:12:51.150Z,12.25
2023-01-17T05:13:52.993Z,12.49
2023-01-17T05:14:54.783Z,12.67
2023-01-17T05:15:56.693Z,13.35
2023-01-17T05:16:58.658Z,11.72
2023-01-17T05:18:00.506Z,12.33
2023-01-17T05:19:02.309Z,12.79
2023-01-17T05:20:04.226Z,13.01
2023-01-17T05:21:06.146Z,11.80
2023-01-17T05:22:07.978Z,13.15
2023-01-17T05:23:09.847Z,12.93
2023-01-17T05:24:11.649Z,12.87
2023-01-17T05:25:13.482Z,12.34
2023-01-17T05:26:15.300Z,13.32
2023-01-17T05:27:17.102Z,12.09
2023-01-17T05:28:18.954Z,12.24
2023-01-17T05:29:20.784Z,13.05
2023-01-17T05:30:22.730Z,12.03
2023-01-17T05:31:24.572Z,13.09
2023-01-17T05:32:26.427Z,12.25
2023-01-17T05:33:28.281Z,12.33
2023-01-17T05:34:30.107Z,12.97
2023-01-17T05:35:31.909Z,12.81
2023-01-17T05:36:33.922Z,11.80
2023-01-17T05:37:35.744Z,13.35
2023-01-17T05:38:37.628Z,13.17
2023-01-17T05:39:39.428Z,12.60
2023-01-17T05:40:41.480Z,13.81
2023-01-17T05:41:43.289Z,12.83
2023-01-17T05:42:45.114Z,12.26
2023-01-17T05:43:46.976Z,13.59
2023-01-17T05:44:48.778Z,12.00
2023-01-17T05:45:50.630Z,12.89
2023-01-17T05:46:52.557Z,12.67
2023-01-17T05:47:54.450Z,12.12
2023-01-17T05:48:56.340Z,12.63
2023-01-17T05:49:58.163Z,13.15
2023-01-17T05:51:00.202Z,12.92
2023-01-17T05:52:01.992Z,13.43
2023-01-17T05:53:03.801Z,13.53
2023-01-17T05:54:05.663Z,13.13
2023-01-17T05:55:07.481Z,12.84
2023-01-17T05:56:10.344Z,13.75
2023-01-17T05:57:12.182Z,12.99
2023-01-17T05:58:14.002Z,12.97
2023-01-17T05:59:18.737Z,14.09
2023-01-17T06:00:19.585Z,12.56
2023-01-17T06:01:21.479Z,13.69
2023-01-17T06:02:23.401Z,13.16
2023-01-17T06:03:25.219Z,13.61
2023-01-17T06:04:27.155Z,13.50
2023-01-17T06:05:28.990Z,14.01
2023-01-17T06:06:31.022Z,13.95
2023-01-17T06:07:32.831Z,14.41
2023-01-17T06:08:34.650Z,14.23
2023-01-17T06:09:36.499Z,13.72
2023-01-17T06:10:38.433Z,13.99
2023-01-17T06:11:40.263Z,12.60
2023-01-17T06:12:42.074Z,13.02
2023-01-17T06:13:43.900Z,14.53
2023-01-17T06:14:45.765Z,13.78
2023-01-17T06:15:47.659Z,13.73
2023-01-17T06:16:49.722Z,13.47
2023-01-17T06:17:51.635Z,13.33
2023-01-17T06:18:53.446Z,14.63
2023-01-17T06:19:55.300Z,13.99
2023-01-17T06:20:57.112Z,13.44
2023-01-17T06:21:58.928Z,13.57
2023-01-17T06:23:00.749Z,13.71
2023-01-17T06:24:04.225Z,14.21
2023-01-17T06:25:06.230Z,14.04
2023-01-17T06:26:09.276Z,14.22
2023-01-17T06:27:11.207Z,14.02
2023-01-17T06:28:13.016Z,15.33
2023-01-17T06:29:15.251Z,13.57
2023-01-17T06:30:17.216Z,14.75
2023-01-17T06:31:19.107Z,14.26
2023-01-17T06:32:21.005Z,14.41
2023-01-17T06:33:22.834Z,15.81
2023-01-17T06:34:24.761Z,14.77
2023-01-17T06:35:26.618Z,14.61
2023-01-17T06:36:28.651Z,13.95
2023-01-17T06:37:30.456Z,14.53
2023-01-17T06:38:32.276Z,16.23
2023-01-17T06:39:34.089Z,15.33
2023-01-17T06:40:36.068Z,15.19
2023-01-17T06:41:37.906Z,15.33
2023-01-17T06:42:39.705Z,14.13
2023-01-17T06:43:41.647Z,13.91
2023-01-17T06:44:43.482Z,14.13
2023-01-17T06:45:45.442Z,14.43
2023-01-17T06:46:47.553Z,14.67
2023-01-17T06:47:49.412Z,14.93
2023-01-17T06:48:51.270Z,14.50
2023-01-17T06:49:53.079Z,14.91
2023-01-17T06:50:55.060Z,14.02
2023-01-17T06:51:56.920Z,14.29
2023-01-17T06:52:58.743Z,14.21
2023-01-17T06:54:00.720Z,15.03
2023-01-17T06:55:02.505Z,14.35
2023-01-17T06:56:04.457Z,13.96
2023-01-17T06:57:06.332Z,14.29
2023-01-17T06:58:08.340Z,16.17
2023-01-17T06:59:10.366Z,14.87
2023-01-17T07:00:12.742Z,15.00
2023-01-17T07:01:14.773Z,15.43
2023-01-17T07:02:16.704Z,15.47
2023-01-17T07:03:18.569Z,14.90
2023-01-17T07:04:20.467Z,15.22
2023-01-17T07:05:22.307Z,14.79
2023-01-17T07:06:24.252Z,15.61
2023-01-17T07:07:26.058Z,14.37
2023-01-17T07:08:27.893Z,15.69
2023-01-17T07:09:29.737Z,14.21
2023-01-17T07:10:31.658Z,14.94
2023-01-17T07:11:33.501Z,15.06
2023-01-17T07:12:35.326Z,15.29
2023-01-17T07:13:37.159Z,19.11
2023-01-17T07:14:39.067Z,18.76
2023-01-17T07:15:41.042Z,15.61
2023-01-17T07:16:43.110Z,16.40
2023-01-17T07:17:44.924Z,16.77
2023-01-17T07:18:46.728Z,16.59
2023-01-17T07:19:48.637Z,16.81
2023-01-17T07:20:50.587Z,16.63
2023-01-17T07:21:52.433Z,15.54
2023-01-17T07:22:54.237Z,15.83
2023-01-17T07:23:56.072Z,16.65
2023-01-17T07:24:57.891Z,16.52
2023-01-17T07:25:59.697Z,16.96
2023-01-17T07:27:01.558Z,17.32
2023-01-17T07:28:03.371Z,17.85
2023-01-17T07:29:05.211Z,17.21
2023-01-17T07:30:07.444Z,16.98
2023-01-17T07:31:09.256Z,16.15
2023-01-17T07:32:11.118Z,16.43
2023-01-17T07:33:13.037Z,18.13
2023-01-17T07:34:14.848Z,20.26
2023-01-17T07:35:16.835Z,21.91
2023-01-17T07:36:18.767Z,20.71
2023-01-17T07:37:20.636Z,16.99
2023-01-17T07:38:22.423Z,16.74
2023-01-17T07:39:24.250Z,17.09
2023-01-17T07:40:26.187Z,18.43
2023-01-17T07:41:28.092Z,18.73
2023-01-17T07:42:29.936Z,19.01
2023-01-17T07:43:31.771Z,17.41
2023-01-17T07:44:33.603Z,17.19
2023-01-17T07:45:35.442Z,19.27
2023-01-17T07:46:37.615Z,17.40
2023-01-17T07:47:39.524Z,16.66
2023-01-17T07:48:41.327Z,17.87
2023-01-17T07:49:43.156Z,16.88
2023-01-17T07:50:45.296Z,17.50
2023-01-17T07:51:47.108Z,15.67
2023-01-17T07:52:48.971Z,16.30
2023-01-17T07:53:50.788Z,15.32
2023-01-17T07:54:52.595Z,16.20
2023-01-17T07:55:54.441Z,19.25
2023-01-17T07:56:56.439Z,16.66
2023-01-17T07:57:58.314Z,17.64
2023-01-17T07:59:00.115Z,16.77
2023-01-17T08:00:02.229Z,17.19
2023-01-17T08:01:04.170Z,17.23
2023-01-17T08:02:05.995Z,16.75
2023-01-17T08:03:07.925Z,17.20
2023-01-17T08:04:09.794Z,17.70
2023-01-17T08:05:11.659Z,18.34
2023-01-17T08:06:13.631Z,19.61
2023-01-17T08:07:15.457Z,18.07
2023-01-17T08:08:17.868Z,16.78
2023-01-17T08:09:19.639Z,18.29
2023-01-17T08:10:21.648Z,18.24
2023-01-17T08:11:23.465Z,18.08
2023-01-17T08:12:25.266Z,18.00
2023-01-17T08:13:29.087Z,17.15
2023-01-17T08:14:30.798Z,18.74
2023-01-17T08:15:32.610Z,21.21
2023-01-17T08:16:34.563Z,20.99
2023-01-17T08:17:36.448Z,18.42
2023-01-17T08:18:38.330Z,17.80
2023-01-17T08:19:40.161Z,18.86
2023-01-17T08:20:42.056Z,17.11
2023-01-17T08:21:44.149Z,18.13
2023-01-17T08:22:45.990Z,17.49
2023-01-17T08:23:47.844Z,17.69
2023-01-17T08:24:49.683Z,17.27
2023-01-17T08:25:51.508Z,18.78
2023-01-17T08:26:53.525Z,17.31
2023-01-17T08:27:55.348Z,16.80
2023-01-17T08:28:57.224Z,16.58
2023-01-17T08:29:59.043Z,17.19
2023-01-17T08:31:00.980Z,17.57
2023-01-17T08:32:02.810Z,17.70
2023-01-17T08:33:04.701Z,17.42
2023-01-17T08:34:06.566Z,17.40
2023-01-17T08:35:08.531Z,17.26
2023-01-17T08:36:10.698Z,17.13
2023-01-17T08:37:12.658Z,18.01
2023-01-17T08:38:14.490Z,16.93
2023-01-17T08:39:16.343Z,18.16
2023-01-17T08:40:18.367Z,19.21
2023-01-17T08:41:20.196Z,20.02
2023-01-17T08:42:22.043Z,21.35
2023-01-17T08:43:23.865Z,20.59
2023-01-17T08:44:25.716Z,19.47
2023-01-17T08:45:27.618Z,18.81
2023-01-17T08:46:31.385Z,19.76
2023-01-17T08:47:33.183Z,16.97
2023-01-17T08:48:35.012Z,17.91
2023-01-17T08:49:36.867Z,16.99
2023-01-17T08:50:38.820Z,18.09
2023-01-17T08:51:40.672Z,17.41
2023-01-17T08:52:42.521Z,17.03
2023-01-17T08:53:44.338Z,18.57
2023-01-17T08:54:46.192Z,19.85
2023-01-17T08:55:48.012Z,18.55
2023-01-17T08:56:49.932Z,17.20
2023-01-17T08:57:52.243Z,17.00
2023-01-17T08:58:54.151Z,16.96
2023-01-17T08:59:55.973Z,16.63
2023-01-17T09:00:57.970Z,16.22
2023-01-17T09:02:00.001Z,15.54
2023-01-17T09:03:01.906Z,16.50
2023-01-17T09:04:03.743Z,16.11
2023-01-17T09:05:05.711Z,20.91
2023-01-17T09:06:08.581Z,25.43
2023-01-17T09:07:10.402Z,22.72
2023-01-17T09:08:12.342Z,18.77
2023-01-17T09:09:14.153Z,18.05
2023-01-17T09:10:16.025Z,19.84
2023-01-17T09:11:17.831Z,31.07
2023-01-17T09:12:19.650Z,23.81
2023-01-17T09:13:21.477Z,24.15
2023-01-17T09:14:23.306Z,25.21
2023-01-17T09:15:25.137Z,21.40
2023-01-17T09:16:27.103Z,18.88
2023-01-17T09:17:28.906Z,19.89
2023-01-17T09:18:30.715Z,17.22
2023-01-17T09:19:32.532Z,17.66
2023-01-17T09:20:34.529Z,17.45
2023-01-17T09:21:36.335Z,18.33
2023-01-17T09:22:38.140Z,19.37
2023-01-17T09:23:39.977Z,17.71
2023-01-17T09:24:41.783Z,19.86
2023-01-17T09:25:43.668Z,19.11
2023-01-17T09:26:45.492Z,19.31
2023-01-17T09:27:47.295Z,18.33
2023-01-17T09:28:49.113Z,19.27
2023-01-17T09:29:51.058Z,18.97
2023-01-17T09:30:53.100Z,19.40
2023-01-17T09:31:54.962Z,18.85
2023-01-17T09:32:56.774Z,19.01
2023-01-17T09:33:58.603Z,18.82
2023-01-17T09:35:00.427Z,18.41
2023-01-17T09:36:02.369Z,18.04
2023-01-17T09:37:04.194Z,19.25
2023-01-17T09:38:06.007Z,20.08
2023-01-17T09:39:07.847Z,19.69
2023-01-17T09:40:09.762Z,19.28
2023-01-17T09:41:11.641Z,19.77
2023-01-17T09:42:13.442Z,19.90
2023-01-17T09:43:15.238Z,19.85
2023-01-17T09:44:17.040Z,18.79
2023-01-17T09:45:18.849Z,19.73
2023-01-17T09:46:20.861Z,18.76
2023-01-17T09:47:22.752Z,20.29
2023-01-17T09:48:24.577Z,19.44
2023-01-17T09:49:27.456Z,19.79
2023-01-17T09:50:29.393Z,19.54
2023-01-17T09:51:31.263Z,18.51
2023-01-17T09:52:33.078Z,20.09
2023-01-17T09:53:34.907Z,19.49
2023-01-17T09:54:36.751Z,19.36
2023-01-17T09:55:38.638Z,18.87
2023-01-17T09:56:40.726Z,19.19
2023-01-17T09:57:42.552Z,20.08
2023-01-17T09:58:44.365Z,20.64
2023-01-17T09:59:46.200Z,19.96
2023-01-17T10:00:48.175Z,20.61
2023-01-17T10:01:50.277Z,20.38
2023-01-17T10:02:52.333Z,19.54
2023-01-17T10:03:54.444Z,18.91
2023-01-17T10:04:56.475Z,18.28
2023-01-17T10:05:58.262Z,18.81
2023-01-17T10:07:00.213Z,19.66
2023-01-17T10:08:04.469Z,17.10
2023-01-17T10:09:05.702Z,18.96
2023-01-17T10:10:08.012Z,18.51
2023-01-17T10:11:09.816Z,20.06
2023-01-17T10:12:11.668Z,18.49
2023-01-17T10:13:13.482Z,19.21
2023-01-17T10:14:15.299Z,19.51
2023-01-17T10:15:17.120Z,18.63
2023-01-17T10:16:19.160Z,18.60
2023-01-17T10:17:21.123Z,18.49
2023-01-17T10:18:29.931Z,20.23
2023-01-17T10:19:26.551Z,20.67
2023-01-17T10:20:28.589Z,19.29
2023-01-17T10:21:30.414Z,20.69
2023-01-17T10:22:32.311Z,19.61
2023-01-17T10:23:34.118Z,20.61
2023-01-17T10:24:35.956Z,19.53
2023-01-17T10:25:37.810Z,20.71
2023-01-17T10:26:39.723Z,20.57
2023-01-17T10:27:41.582Z,20.19
2023-01-17T10:28:43.408Z,20.05
2023-01-17T10:29:45.222Z,21.48
2023-01-17T10:30:47.374Z,21.65
2023-01-17T10:31:49.171Z,20.05
2023-01-17T10:32:51.043Z,21.64
2023-01-17T10:33:52.903Z,21.26
2023-01-17T10:34:54.803Z,20.89
2023-01-17T10:35:56.646Z,20.73
2023-01-17T10:36:58.857Z,21.45
2023-01-17T10:38:00.754Z,20.14
2023-01-17T10:39:02.578Z,20.67
2023-01-17T10:40:04.488Z,20.93
2023-01-17T10:41:06.432Z,19.41
2023-01-17T10:42:08.265Z,20.87
2023-01-17T10:43:10.141Z,19.85
2023-01-17T10:44:11.975Z,21.69
2023-01-17T10:45:13.787Z,24.24
2023-01-17T10:46:15.782Z,22.54
2023-01-17T10:47:17.657Z,22.01
2023-01-17T10:48:20.196Z,21.49
2023-01-17T10:49:23.048Z,22.17
2023-01-17T10:50:24.865Z,23.89
2023-01-17T10:51:26.701Z,23.57
2023-01-17T10:52:28.531Z,23.14
2023-01-17T10:53:30.410Z,22.19
2023-01-17T10:54:32.216Z,28.36
2023-01-17T10:55:34.093Z,23.81
2023-01-17T10:56:36.019Z,22.03
2023-01-17T10:57:37.843Z,22.55
2023-01-17T10:58:39.703Z,24.57
2023-01-17T10:59:41.534Z,22.58
2023-01-17T11:00:43.464Z,25.20
2023-01-17T11:01:46.618Z,24.14
2023-01-17T11:02:48.461Z,22.54
2023-01-17T11:03:50.414Z,23.46
2023-01-17T11:04:52.228Z,22.84
2023-01-17T11:05:54.149Z,22.62
2023-01-17T11:06:58.302Z,21.53
2023-01-17T11:07:59.761Z,21.36
2023-01-17T11:09:01.685Z,20.87
2023-01-17T11:10:03.617Z,20.77
2023-01-17T11:11:05.480Z,22.69
2023-01-17T11:12:07.351Z,21.33
2023-01-17T11:13:09.249Z,22.75
2023-01-17T11:14:11.232Z,22.25
2023-01-17T11:15:13.037Z,22.07
2023-01-17T11:16:14.987Z,22.61
2023-01-17T11:17:16.813Z,21.63
2023-01-17T11:18:18.674Z,21.00
2023-01-17T11:19:20.525Z,21.87
2023-01-17T11:20:22.446Z,20.65
2023-01-17T11:21:24.295Z,22.39
2023-01-17T11:22:26.156Z,22.35
2023-01-17T11:23:27.956Z,22.32
2023-01-17T11:24:29.802Z,21.51
2023-01-17T11:25:31.625Z,21.03
2023-01-17T11:26:33.550Z,21.68
2023-01-17T11:27:35.466Z,20.97
2023-01-17T11:28:37.331Z,20.99
2023-01-17T11:29:39.196Z,21.83
2023-01-17T11:30:41.141Z,21.59
2023-01-17T11:31:42.925Z,20.67
2023-01-17T11:32:44.738Z,20.87
2023-01-17T11:33:46.597Z,21.45
2023-01-17T11:34:48.492Z,21.65
2023-01-17T11:35:50.304Z,22.27
2023-01-17T11:36:52.223Z,21.19
2023-01-17T11:37:54.064Z,21.81
2023-01-17T11:38:55.878Z,21.17
2023-01-17T11:39:57.731Z,20.99
2023-01-17T11:40:59.660Z,20.22
2023-01-17T11:42:01.493Z,19.01
2023-01-17T11:43:03.420Z,19.63
2023-01-17T11:44:05.258Z,19.44
2023-01-17T11:45:07.171Z,20.02
2023-01-17T11:46:09.776Z,20.29
2023-01-17T11:47:11.654Z,21.00
2023-01-17T11:48:13.512Z,20.37
2023-01-17T11:49:15.488Z,20.48
2023-01-17T11:50:17.488Z,19.91
2023-01-17T11:51:19.349Z,20.65
2023-01-17T11:52:21.165Z,19.23
2023-01-17T11:53:23.068Z,20.24
2023-01-17T11:54:24.928Z,20.15
2023-01-17T11:55:26.882Z,19.80
2023-01-17T11:56:29.145Z,19.81
2023-01-17T11:57:31.199Z,19.97
2023-01-17T11:58:33.188Z,19.23
2023-01-17T11:59:35.112Z,20.36
2023-01-17T12:00:37.430Z,19.99
2023-01-17T12:01:39.557Z,21.79
2023-01-17T12:02:41.426Z,20.67
2023-01-17T12:03:43.287Z,19.47
2023-01-17T12:04:45.154Z,19.82
2023-01-17T12:05:47.160Z,19.01
2023-01-17T12:06:57.732Z,19.77
2023-01-17T12:07:52.811Z,19.08
2023-01-17T12:08:54.643Z,20.08
2023-01-17T12:09:56.540Z,19.64
2023-01-17T12:10:58.597Z,19.71
2023-01-17T12:12:00.431Z,20.39
2023-01-17T12:13:02.267Z,19.50
2023-01-17T12:14:04.833Z,19.07
2023-01-17T12:15:06.820Z,19.98
2023-01-17T12:16:08.947Z,18.51
2023-01-17T12:17:10.846Z,18.15
2023-01-17T12:18:12.701Z,18.96
2023-01-17T12:19:14.536Z,21.29
2023-01-17T12:20:16.758Z,20.61
2023-01-17T12:21:18.742Z,20.29
2023-01-17T12:22:20.681Z,20.71
2023-01-17T12:23:22.547Z,20.07
2023-01-17T12:24:24.355Z,20.09
2023-01-17T12:25:26.198Z,20.68
2023-01-17T12:26:28.458Z,21.14
2023-01-17T12:27:30.283Z,21.47
2023-01-17T12:28:32.112Z,21.42
2023-01-17T12:29:34.104Z,21.05
2023-01-17T12:30:36.133Z,22.44
2023-01-17T12:31:38.132Z,19.95
2023-01-17T12:32:40.049Z,20.28
2023-01-17T12:33:41.997Z,21.54
2023-01-17T12:34:43.794Z,20.78
2023-01-17T12:35:45.618Z,20.93
2023-01-17T12:36:49.331Z,19.87
2023-01-17T12:38:04.145Z,19.63
2023-01-17T12:38:54.829Z,19.89
2023-01-17T12:39:56.639Z,20.28
2023-01-17T12:40:58.674Z,19.89
2023-01-17T12:42:00.780Z,20.45
2023-01-17T12:43:02.969Z,20.45
2023-01-17T12:44:05.428Z,20.87
2023-01-17T12:45:07.421Z,19.76
2023-01-17T12:46:10.608Z,20.69
2023-01-17T12:47:12.586Z,20.77
2023-01-17T12:48:14.551Z,20.95
2023-01-17T12:49:16.829Z,19.26
2023-01-17T12:50:19.594Z,19.64
2023-01-17T12:51:21.827Z,19.89
2023-01-17T12:52:23.913Z,17.97
2023-01-17T12:53:25.772Z,18.17
2023-01-17T12:54:27.781Z,19.24
2023-01-17T12:55:29.994Z,19.49
2023-01-17T12:56:32.047Z,19.30
2023-01-17T12:57:33.916Z,18.94
2023-01-17T12:58:35.908Z,20.75
2023-01-17T12:59:37.800Z,20.36
2023-01-17T13:00:39.996Z,20.06
2023-01-17T13:01:42.084Z,20.18
2023-01-17T13:02:44.003Z,20.17
2023-01-17T13:03:45.887Z,21.38
2023-01-17T13:04:58.373Z,20.05
2023-01-17T13:05:51.616Z,20.69
2023-01-17T13:06:54.159Z,20.20
2023-01-17T13:07:56.078Z,20.13
2023-01-17T13:08:57.975Z,18.81
2023-01-17T13:09:59.890Z,20.16
2023-01-17T13:11:01.739Z,19.15
2023-01-17T13:12:03.563Z,20.55
2023-01-17T13:13:05.502Z,20.45
2023-01-17T13:14:09.580Z,20.76
2023-01-17T13:15:11.530Z,20.96
2023-01-17T13:16:14.150Z,20.51
2023-01-17T13:17:17.813Z,21.80
2023-01-17T13:18:20.395Z,21.54
2023-01-17T13:19:22.209Z,22.45
2023-01-17T13:20:24.443Z,19.50
2023-01-17T13:21:26.274Z,19.10
2023-01-17T13:22:28.107Z,18.77
2023-01-17T13:23:29.984Z,19.95
2023-01-17T13:24:31.902Z,19.31